createdAt,value
2022-10-17T00:02:12.759Z,99139.19
2022-10-17T00:04:39.207Z,99140.34
2022-10-17T00:07:05.595Z,99141.53
2022-10-17T00:09:32.101Z,99136.25
2022-10-17T00:11:58.657Z,99136.34
2022-10-17T00:14:25.062Z,99138.97
2022-10-17T00:16:51.431Z,99143.22
2022-10-17T00:19:17.834Z,99144.28
2022-10-17T00:21:44.274Z,99139.81
2022-10-17T00:24:10.679Z,99139.47
2022-10-17T00:26:37.054Z,99145.97
2022-10-17T00:29:03.602Z,99144.44
2022-10-17T00:31:30.026Z,99141.13
2022-10-17T00:33:56.429Z,99144.09
2022-10-17T00:36:25.368Z,99137.78
2022-10-17T00:38:57.459Z,99133.50
2022-10-17T00:41:27.313Z,99134.31
2022-10-17T00:44:05.715Z,99134.34
2022-10-17T00:46:38.510Z,99131.81
2022-10-17T00:49:08.290Z,99132.09
2022-10-17T00:51:41.583Z,99142.63
2022-10-17T00:54:09.998Z,99149.50
2022-10-17T00:56:36.929Z,99145.47
2022-10-17T00:59:03.810Z,99150.13
2022-10-17T01:01:30.603Z,99153.34
2022-10-17T01:03:57.047Z,99147.19
2022-10-17T01:06:23.487Z,99158.16
2022-10-17T01:08:49.969Z,99150.47
2022-10-17T01:11:28.185Z,99150.91
2022-10-17T01:14:09.097Z,99152.00
2022-10-17T01:17:08.507Z,99152.06
2022-10-17T01:20:10.027Z,99153.25
2022-10-17T01:22:42.334Z,99153.34
2022-10-17T01:25:27.678Z,99153.34
2022-10-17T01:28:11.566Z,99147.91
2022-10-17T01:30:46.938Z,99147.91
2022-10-17T01:33:36.447Z,99144.53
2022-10-17T01:36:12.843Z,99138.56
2022-10-17T01:38:59.500Z,99129.75
2022-10-17T01:41:42.238Z,99142.38
2022-10-17T01:44:14.876Z,99141.47
2022-10-17T01:46:54.382Z,99143.19
2022-10-17T01:49:26.207Z,99153.31
2022-10-17T01:52:02.979Z,99151.38
2022-10-17T01:54:51.650Z,99145.47
2022-10-17T01:57:29.026Z,99153.81
2022-10-17T01:59:57.024Z,99140.69
2022-10-17T02:02:25.843Z,99145.34
2022-10-17T02:04:54.001Z,99144.88
2022-10-17T02:07:20.458Z,99143.00
2022-10-17T02:09:46.895Z,99146.53
2022-10-17T02:12:24.048Z,99146.00
2022-10-17T02:15:20.877Z,99141.25
2022-10-17T02:17:47.160Z,99132.41
2022-10-17T02:20:16.250Z,99140.06
2022-10-17T02:22:52.020Z,99133.03
2022-10-17T02:25:31.311Z,99135.56
2022-10-17T02:28:22.676Z,99130.34
2022-10-17T02:30:56.185Z,99138.63
2022-10-17T02:33:30.939Z,99137.81
2022-10-17T02:36:03.157Z,99141.63
2022-10-17T02:38:31.395Z,99129.31
2022-10-17T02:40:57.975Z,99126.34
2022-10-17T02:43:24.832Z,99127.88
2022-10-17T02:45:52.467Z,99125.81
2022-10-17T02:48:35.639Z,99137.88
2022-10-17T02:51:20.297Z,99129.13
2022-10-17T02:53:55.292Z,99140.06
2022-10-17T02:56:22.388Z,99134.44
2022-10-17T02:58:56.082Z,99145.00
2022-10-17T03:01:23.113Z,99137.00
2022-10-17T03:03:49.609Z,99144.38
2022-10-17T03:06:16.135Z,99135.72
2022-10-17T03:08:42.655Z,99128.03
2022-10-17T03:11:09.118Z,99131.44
2022-10-17T03:13:38.951Z,99126.66
2022-10-17T03:16:06.457Z,99123.31
2022-10-17T03:18:32.830Z,99133.22
2022-10-17T03:20:59.234Z,99126.22
2022-10-17T03:23:25.634Z,99130.06
2022-10-17T03:25:52.004Z,99127.38
2022-10-17T03:28:18.447Z,99132.16
2022-10-17T03:30:44.798Z,99127.38
2022-10-17T03:33:11.245Z,99135.47
2022-10-17T03:35:40.309Z,99125.97
2022-10-17T03:38:06.778Z,99147.53
2022-10-17T03:40:33.189Z,99141.03
2022-10-17T03:42:59.593Z,99139.38
2022-10-17T03:45:25.943Z,99147.78
2022-10-17T03:47:52.343Z,99149.25
2022-10-17T03:50:18.705Z,99149.09
2022-10-17T03:52:49.153Z,99154.00
2022-10-17T03:55:16.320Z,99154.63
2022-10-17T03:57:45.444Z,99158.75
2022-10-17T04:00:13.092Z,99156.72
2022-10-17T04:02:39.687Z,99159.19
2022-10-17T04:05:06.751Z,99151.81
2022-10-17T04:07:33.154Z,99169.69
2022-10-17T04:09:59.576Z,99166.75
2022-10-17T04:12:25.983Z,99165.53
2022-10-17T04:14:52.447Z,99167.34
2022-10-17T04:17:18.914Z,99165.88
2022-10-17T04:19:45.416Z,99165.25
2022-10-17T04:22:11.825Z,99170.38
2022-10-17T04:24:38.224Z,99169.25
2022-10-17T04:27:04.697Z,99173.28
2022-10-17T04:29:31.196Z,99169.31
2022-10-17T04:31:57.685Z,99175.91
2022-10-17T04:34:24.073Z,99170.63
2022-10-17T04:36:51.891Z,99159.66
2022-10-17T04:39:18.568Z,99162.69
2022-10-17T04:41:45.003Z,99171.53
2022-10-17T04:44:11.550Z,99166.69
2022-10-17T04:46:38.099Z,99171.81
2022-10-17T04:49:04.817Z,99170.66
2022-10-17T04:51:31.249Z,99169.88
2022-10-17T04:53:57.672Z,99178.63
2022-10-17T04:56:24.923Z,99180.78
2022-10-17T04:58:52.310Z,99181.25
2022-10-17T05:01:20.107Z,99177.13
2022-10-17T05:03:47.214Z,99180.34
2022-10-17T05:06:16.437Z,99181.88
2022-10-17T05:08:42.944Z,99183.25
2022-10-17T05:11:38.897Z,99185.44
2022-10-17T05:14:05.510Z,99187.69
2022-10-17T05:16:31.974Z,99193.81
2022-10-17T05:18:59.142Z,99192.75
2022-10-17T05:21:27.256Z,99195.69
2022-10-17T05:23:53.840Z,99203.31
2022-10-17T05:26:21.021Z,99197.13
2022-10-17T05:28:47.587Z,99192.81
2022-10-17T05:31:14.489Z,99206.56
2022-10-17T05:33:41.146Z,99210.22
2022-10-17T05:36:08.427Z,99188.38
2022-10-17T05:38:35.016Z,99198.38
2022-10-17T05:41:05.960Z,99202.41
2022-10-17T05:43:33.432Z,99216.72
2022-10-17T05:46:02.505Z,99222.28
2022-10-17T05:48:28.975Z,99223.25
2022-10-17T05:50:59.979Z,99213.75
2022-10-17T05:53:26.771Z,99226.50
2022-10-17T05:56:00.631Z,99229.97
2022-10-17T06:01:14.066Z,99231.28
2022-10-17T06:03:40.586Z,99229.94
2022-10-17T06:06:12.069Z,99238.41
2022-10-17T06:08:38.637Z,99235.84
2022-10-17T06:11:09.122Z,99239.28
2022-10-17T06:13:37.057Z,99241.38
2022-10-17T06:16:03.532Z,99234.63
2022-10-17T06:18:29.986Z,99237.22
2022-10-17T06:21:03.477Z,99237.41
2022-10-17T06:23:30.211Z,99237.16
2022-10-17T06:26:01.815Z,99240.63
2022-10-17T06:28:28.748Z,99241.00
2022-10-17T06:30:55.177Z,99243.47
2022-10-17T06:33:23.239Z,99248.91
2022-10-17T06:35:54.507Z,99252.69
2022-10-17T06:38:21.439Z,99254.03
2022-10-17T06:40:48.005Z,99260.50
2022-10-17T06:43:14.652Z,99257.28
2022-10-17T06:45:41.772Z,99254.88
2022-10-17T06:48:08.459Z,99260.16
2022-10-17T06:50:35.313Z,99251.81
2022-10-17T06:53:01.712Z,99261.31
2022-10-17T06:55:28.067Z,99260.22
2022-10-17T06:57:55.825Z,99266.63
2022-10-17T07:00:23.367Z,99271.59
2022-10-17T07:02:49.843Z,99257.44
2022-10-17T07:05:16.346Z,99265.13
2022-10-17T07:07:44.785Z,99271.41
2022-10-17T07:10:12.837Z,99274.56
2022-10-17T07:12:39.342Z,99271.19
2022-10-17T07:15:06.140Z,99274.16
2022-10-17T07:17:32.655Z,99273.75
2022-10-17T07:19:59.392Z,99277.59
2022-10-17T07:22:26.010Z,99285.00
2022-10-17T07:24:52.455Z,99278.44
2022-10-17T07:27:18.864Z,99271.09
2022-10-17T07:29:45.249Z,99289.50
2022-10-17T07:32:11.615Z,99284.47
2022-10-17T07:34:38.094Z,99286.31
2022-10-17T07:37:06.894Z,99283.38
2022-10-17T07:39:35.554Z,99283.00
2022-10-17T07:42:02.038Z,99288.53
2022-10-17T07:44:28.473Z,99281.53
2022-10-17T07:46:54.917Z,99282.66
2022-10-17T07:49:21.265Z,99288.19
2022-10-17T07:51:48.119Z,99291.78
2022-10-17T07:54:14.515Z,99296.78
2022-10-17T07:56:40.953Z,99298.16
2022-10-17T07:59:09.418Z,99291.25
2022-10-17T08:01:36.936Z,99303.53
2022-10-17T08:04:03.388Z,99303.94
2022-10-17T08:06:29.782Z,99300.09
2022-10-17T08:08:57.847Z,99306.31
2022-10-17T08:11:25.333Z,99299.78
2022-10-17T08:13:51.813Z,99303.47
2022-10-17T08:16:18.299Z,99304.59
2022-10-17T08:18:44.855Z,99305.66
2022-10-17T08:21:13.446Z,99310.81
2022-10-17T08:23:40.244Z,99297.88
2022-10-17T08:26:10.505Z,99303.72
2022-10-17T08:28:38.614Z,99293.78
2022-10-17T08:31:13.593Z,99306.13
2022-10-17T08:33:40.916Z,99301.94
2022-10-17T08:36:08.588Z,99297.19
2022-10-17T08:38:36.932Z,99306.84
2022-10-17T08:41:11.698Z,99312.41
2022-10-17T08:44:03.657Z,99306.72
2022-10-17T08:46:36.513Z,99302.09
2022-10-17T08:49:07.673Z,99298.97
2022-10-17T08:51:53.112Z,99294.94
2022-10-17T08:54:40.691Z,99298.69
2022-10-17T08:57:13.042Z,99297.72
2022-10-17T08:59:39.585Z,99296.22
2022-10-17T09:02:37.016Z,99299.50
2022-10-17T09:05:49.276Z,99299.84
2022-10-17T09:08:31.681Z,99296.13
2022-10-17T09:11:25.066Z,99298.25
2022-10-17T09:14:09.829Z,99294.69
2022-10-17T09:16:49.933Z,99300.50
2022-10-17T09:19:36.754Z,99289.41
2022-10-17T09:22:06.415Z,99295.25
2022-10-17T09:24:42.541Z,99302.81
2022-10-17T09:27:22.443Z,99305.41
2022-10-17T09:29:50.875Z,99300.09
2022-10-17T09:32:21.959Z,99307.47
2022-10-17T09:34:48.813Z,99306.09
2022-10-17T09:37:17.095Z,99308.16
2022-10-17T09:39:44.625Z,99291.03
2022-10-17T09:42:19.314Z,99303.00
2022-10-17T09:44:54.595Z,99297.09
2022-10-17T09:47:28.357Z,99301.31
2022-10-17T09:49:55.043Z,99298.53
2022-10-17T09:52:35.275Z,99302.75
2022-10-17T09:55:04.396Z,99306.50
2022-10-17T09:57:52.644Z,99304.47
2022-10-17T10:00:28.168Z,99305.22
2022-10-17T10:03:12.914Z,99306.47
2022-10-17T10:05:40.162Z,99295.88
2022-10-17T10:08:16.722Z,99298.81
2022-10-17T10:10:43.766Z,99298.28
2022-10-17T10:13:12.909Z,99287.50
2022-10-17T10:15:42.376Z,99283.50
2022-10-17T10:18:35.096Z,99290.75
2022-10-17T10:21:17.313Z,99292.31
2022-10-17T10:23:45.544Z,99293.41
2022-10-17T10:26:21.025Z,99291.13
2022-10-17T10:29:20.881Z,99293.06
2022-10-17T10:31:47.622Z,99299.66
2022-10-17T10:34:20.264Z,99304.38
2022-10-17T10:36:54.752Z,99307.47
2022-10-17T10:39:29.471Z,99303.25
2022-10-17T10:41:55.955Z,99299.19
2022-10-17T10:44:26.221Z,99309.84
2022-10-17T10:47:15.070Z,99308.13
2022-10-17T10:49:42.100Z,99305.63
2022-10-17T10:52:15.919Z,99301.34
2022-10-17T10:54:51.354Z,99298.84
2022-10-17T10:57:21.148Z,99293.03
2022-10-17T10:59:58.335Z,99289.50
2022-10-17T11:02:36.857Z,99286.19
2022-10-17T11:05:44.153Z,99297.50
2022-10-17T11:08:14.088Z,99303.69
2022-10-17T11:11:19.772Z,99299.75
2022-10-17T11:13:58.306Z,99303.66
2022-10-17T11:16:36.811Z,99301.19
2022-10-17T11:19:28.421Z,99295.06
2022-10-17T11:22:02.541Z,99293.53
2022-10-17T11:24:35.950Z,99303.81
2022-10-17T11:27:05.260Z,99297.72
2022-10-17T11:29:34.012Z,99295.66
2022-10-17T11:32:06.482Z,99278.38
2022-10-17T11:34:39.289Z,99275.59
2022-10-17T11:37:13.762Z,99272.66
2022-10-17T11:39:50.322Z,99277.13
2022-10-17T11:42:31.654Z,99273.03
2022-10-17T11:45:08.602Z,99285.72
2022-10-17T11:47:40.689Z,99284.91
2022-10-17T11:53:21.783Z,99287.16
2022-10-17T11:55:50.467Z,99265.69
2022-10-17T11:58:35.843Z,99259.72
2022-10-17T12:01:23.767Z,99256.19
2022-10-17T12:04:11.499Z,99253.41
2022-10-17T12:07:02.072Z,99239.38
2022-10-17T12:09:46.043Z,99234.94
2022-10-17T12:12:25.747Z,99236.03
2022-10-17T12:14:52.707Z,99226.78
2022-10-17T12:17:32.435Z,99231.13
2022-10-17T12:20:21.236Z,99222.94
2022-10-17T12:22:48.784Z,99207.66
2022-10-17T12:25:20.230Z,99203.38
2022-10-17T12:27:48.223Z,99206.31
2022-10-17T12:30:23.931Z,99201.38
2022-10-17T12:33:25.680Z,99191.91
2022-10-17T12:36:17.692Z,99206.78
2022-10-17T12:38:50.264Z,99203.94
2022-10-17T12:41:17.341Z,99204.94
2022-10-17T12:43:52.570Z,99204.44
2022-10-17T12:46:42.918Z,99205.91
2022-10-17T12:49:43.448Z,99204.56
2022-10-17T12:52:15.978Z,99205.53
2022-10-17T12:55:00.322Z,99207.16
2022-10-17T12:57:33.784Z,99207.78
2022-10-17T13:00:05.228Z,99200.66
2022-10-17T13:02:33.041Z,99197.66
2022-10-17T13:05:19.258Z,99195.22
2022-10-17T13:07:49.216Z,99197.22
2022-10-17T13:13:11.586Z,99192.16
2022-10-17T13:15:37.997Z,99189.41
2022-10-17T13:18:04.662Z,99185.28
2022-10-17T13:20:32.065Z,99196.13
2022-10-17T13:22:59.464Z,99186.19
2022-10-17T13:25:27.202Z,99189.41
2022-10-17T13:28:05.721Z,99191.66
2022-10-17T13:30:34.973Z,99197.84
2022-10-17T13:33:02.161Z,99193.16
2022-10-17T13:38:26.066Z,99195.16
2022-10-17T13:41:01.374Z,99190.13
2022-10-17T13:43:32.886Z,99185.50
2022-10-17T13:46:19.303Z,99186.38
2022-10-17T13:48:50.546Z,99186.75
2022-10-17T13:51:17.036Z,99182.38
2022-10-17T13:53:44.463Z,99189.41
2022-10-17T13:56:28.324Z,99190.91
2022-10-17T13:59:03.480Z,99183.97
2022-10-17T14:01:30.899Z,99175.09
2022-10-17T14:04:09.029Z,99182.13
2022-10-17T14:06:45.162Z,99192.09
2022-10-17T14:09:26.803Z,99198.50
2022-10-17T14:12:08.533Z,99186.41
2022-10-17T14:14:58.099Z,99186.75
2022-10-17T14:17:27.648Z,99186.59
2022-10-17T14:20:14.194Z,99187.34
2022-10-17T14:22:50.430Z,99189.19
2022-10-17T14:25:35.297Z,99185.97
2022-10-17T14:28:22.510Z,99181.28
2022-10-17T14:30:57.315Z,99191.31
2022-10-17T14:33:29.843Z,99189.91
2022-10-17T14:35:58.432Z,99198.78
2022-10-17T14:38:25.604Z,99188.56
2022-10-17T14:41:41.466Z,99172.78
2022-10-17T14:44:23.558Z,99193.19
2022-10-17T14:46:54.551Z,99188.06
2022-10-17T14:49:36.104Z,99181.47
2022-10-17T14:52:18.774Z,99188.09
2022-10-17T14:54:49.659Z,99191.78
2022-10-17T14:57:22.184Z,99195.06
2022-10-17T14:59:56.075Z,99202.16
2022-10-17T15:02:24.576Z,99190.38
2022-10-17T15:04:51.468Z,99192.31
2022-10-17T15:07:18.392Z,99195.59
2022-10-17T15:09:47.239Z,99193.13
2022-10-17T15:12:16.686Z,99203.03
2022-10-17T15:14:44.140Z,99202.69
2022-10-17T15:17:15.317Z,99209.72
2022-10-17T15:19:41.812Z,99204.59
2022-10-17T15:22:08.226Z,99214.97
2022-10-17T15:24:34.640Z,99212.03
2022-10-17T15:27:01.094Z,99219.41
2022-10-17T15:29:28.295Z,99217.97
2022-10-17T15:31:54.654Z,99212.16
2022-10-17T15:34:21.086Z,99205.88
2022-10-17T15:36:51.879Z,99210.31
2022-10-17T15:39:18.292Z,99214.41
2022-10-17T15:41:44.857Z,99220.28
2022-10-17T15:44:11.358Z,99222.56
2022-10-17T15:46:40.469Z,99221.03
2022-10-17T15:49:11.259Z,99221.47
2022-10-17T15:51:37.925Z,99226.97
2022-10-17T15:54:05.607Z,99231.06
2022-10-17T15:56:37.335Z,99235.50
2022-10-17T15:59:12.140Z,99236.97
2022-10-17T16:01:39.426Z,99238.47
2022-10-17T16:04:06.096Z,99246.56
2022-10-17T16:06:32.495Z,99241.41
2022-10-17T16:08:58.918Z,99236.63
2022-10-17T16:11:31.424Z,99233.69
2022-10-17T16:14:00.469Z,99227.41
2022-10-17T16:16:27.280Z,99228.91
2022-10-17T16:18:54.003Z,99241.41
2022-10-17T16:21:25.210Z,99236.25
2022-10-17T16:23:52.451Z,99246.19
2022-10-17T16:26:19.291Z,99235.50
2022-10-17T16:28:46.481Z,99239.56
2022-10-17T16:31:20.518Z,99242.50
2022-10-17T16:33:48.206Z,99247.66
2022-10-17T16:36:14.642Z,99248.38
2022-10-17T16:38:41.033Z,99239.19
2022-10-17T16:41:37.302Z,99252.06
2022-10-17T16:44:06.678Z,99241.78
2022-10-17T16:46:35.481Z,99246.16
2022-10-17T16:49:04.776Z,99251.31
2022-10-17T16:51:33.635Z,99245.78
2022-10-17T16:54:00.302Z,99256.81
2022-10-17T16:56:32.622Z,99257.91
2022-10-17T16:59:00.647Z,99263.81
2022-10-17T17:01:29.314Z,99266.00
2022-10-17T17:03:56.197Z,99261.25
2022-10-17T17:06:29.347Z,99260.84
2022-10-17T17:08:56.405Z,99264.53
2022-10-17T17:11:25.542Z,99272.97
2022-10-17T17:13:52.243Z,99275.16
2022-10-17T17:16:21.502Z,99288.03
2022-10-17T17:18:50.802Z,99292.78
2022-10-17T17:21:17.453Z,99295.38
2022-10-17T17:23:43.847Z,99293.88
2022-10-17T17:26:16.946Z,99297.16
2022-10-17T17:28:43.856Z,99294.19
2022-10-17T17:31:12.819Z,99291.63
2022-10-17T17:33:40.737Z,99288.66
2022-10-17T17:36:08.114Z,99284.22
2022-10-17T17:38:35.166Z,99284.94
2022-10-17T17:41:01.742Z,99289.38
2022-10-17T17:43:28.470Z,99289.38
2022-10-17T17:45:54.915Z,99282.00
2022-10-17T17:48:21.712Z,99308.78
2022-10-17T17:50:48.516Z,99294.53
2022-10-17T17:53:16.164Z,99298.97
2022-10-17T17:55:42.635Z,99288.34
2022-10-17T17:58:09.796Z,99292.75
2022-10-17T18:00:36.351Z,99289.09
2022-10-17T18:03:03.332Z,99285.31
2022-10-17T18:05:29.898Z,99303.38
2022-10-17T18:07:56.365Z,99297.88
2022-10-17T18:10:22.747Z,99297.47
2022-10-17T18:12:49.178Z,99295.25
2022-10-17T18:15:15.913Z,99291.53
2022-10-17T18:17:42.559Z,99288.97
2022-10-17T18:20:09.673Z,99296.66
2022-10-17T18:22:36.074Z,99296.69
2022-10-17T18:25:02.523Z,99283.84
2022-10-17T18:27:28.912Z,99279.81
2022-10-17T18:29:55.318Z,99286.06
2022-10-17T18:32:21.803Z,99292.00
2022-10-17T18:34:48.163Z,99292.66
2022-10-17T18:37:14.587Z,99297.09
2022-10-17T18:39:41.052Z,99300.00
2022-10-17T18:42:07.765Z,99297.03
2022-10-17T18:44:34.271Z,99297.38
2022-10-17T18:47:03.872Z,99298.03
2022-10-17T18:49:31.412Z,99298.41
2022-10-17T18:51:59.453Z,99299.94
2022-10-17T18:54:25.881Z,99295.06
2022-10-17T18:56:54.650Z,99293.91
2022-10-17T18:59:21.164Z,99304.53
2022-10-17T19:01:48.542Z,99304.88
2022-10-17T19:04:15.024Z,99306.66
2022-10-17T19:06:43.068Z,99303.38
2022-10-17T19:09:11.147Z,99299.69
2022-10-17T19:11:38.540Z,99297.50
2022-10-17T19:14:10.809Z,99295.22
2022-10-17T19:16:37.587Z,99294.47
2022-10-17T19:19:06.697Z,99284.63
2022-10-17T19:21:34.009Z,99290.06
2022-10-17T19:24:01.780Z,99287.44
2022-10-17T19:26:30.523Z,99297.06
2022-10-17T19:28:57.298Z,99288.63
2022-10-17T19:31:27.298Z,99280.97
2022-10-17T19:33:55.438Z,99284.28
2022-10-17T19:36:26.316Z,99288.31
2022-10-17T19:38:56.294Z,99286.84
2022-10-17T19:41:23.214Z,99292.38
2022-10-17T19:43:50.097Z,99294.97
2022-10-17T19:46:19.664Z,99289.78
2022-10-17T19:48:47.881Z,99291.16
2022-10-17T19:51:15.965Z,99290.09
2022-10-17T19:53:42.953Z,99305.16
2022-10-17T19:56:11.665Z,99305.84
2022-10-17T19:58:45.241Z,99312.16
2022-10-17T20:01:23.493Z,99315.72
2022-10-17T20:03:50.581Z,99324.97
2022-10-17T20:06:17.637Z,99322.00
2022-10-17T20:08:44.395Z,99318.97
2022-10-17T20:11:15.314Z,99325.91
2022-10-17T20:13:42.236Z,99331.81
2022-10-17T20:16:12.124Z,99336.94
2022-10-17T20:18:40.638Z,99336.50
2022-10-17T20:21:10.977Z,99339.88
2022-10-17T20:23:38.532Z,99339.41
2022-10-17T20:26:25.346Z,99339.25
2022-10-17T20:28:53.081Z,99342.00
2022-10-17T20:31:20.435Z,99343.00
2022-10-17T20:33:47.024Z,99344.06
2022-10-17T20:36:14.521Z,99337.41
2022-10-17T20:38:40.901Z,99345.06
2022-10-17T20:41:09.384Z,99343.91
2022-10-17T20:43:36.768Z,99344.59
2022-10-17T20:46:15.543Z,99348.53
2022-10-17T20:48:54.124Z,99356.97
2022-10-17T20:51:21.311Z,99363.84
2022-10-17T20:53:48.773Z,99370.78
2022-10-17T20:56:21.481Z,99354.53
2022-10-17T20:58:56.480Z,99362.09
2022-10-17T21:01:24.158Z,99358.38
2022-10-17T21:03:50.790Z,99362.28
2022-10-17T21:06:18.019Z,99365.16
2022-10-17T21:08:46.078Z,99363.34
2022-10-17T21:11:15.290Z,99360.84
2022-10-17T21:13:42.192Z,99361.91
2022-10-17T21:16:16.941Z,99352.34
2022-10-17T21:18:43.737Z,99352.69
2022-10-17T21:21:21.995Z,99351.53
2022-10-17T21:23:49.751Z,99349.31
2022-10-17T21:26:17.696Z,99348.56
2022-10-17T21:28:46.047Z,99350.03
2022-10-17T21:31:16.191Z,99348.66
2022-10-17T21:33:48.802Z,99345.19
2022-10-17T21:36:16.808Z,99340.75
2022-10-17T21:38:45.197Z,99338.19
2022-10-17T21:41:13.967Z,99344.06
2022-10-17T21:43:41.578Z,99353.19
2022-10-17T21:46:17.027Z,99352.13
2022-10-17T21:48:44.460Z,99352.28
2022-10-17T21:51:12.358Z,99345.53
2022-10-17T21:53:39.020Z,99346.25
2022-10-17T21:56:08.012Z,99358.72
2022-10-17T21:58:34.488Z,99353.56
2022-10-17T22:01:11.028Z,99358.00
2022-10-17T22:03:42.747Z,99359.84
2022-10-17T22:09:00.694Z,99357.91
2022-10-17T22:11:30.652Z,99359.00
2022-10-17T22:14:10.838Z,99354.94
2022-10-17T22:16:38.158Z,99359.34
2022-10-17T22:19:06.625Z,99355.59
2022-10-17T22:21:35.215Z,99353.38
2022-10-17T22:24:06.139Z,99358.47
2022-10-17T22:26:34.123Z,99358.81
2022-10-17T22:29:01.028Z,99366.38
2022-10-17T22:31:27.668Z,99362.28
2022-10-17T22:33:54.187Z,99369.53
2022-10-17T22:36:20.772Z,99381.91
2022-10-17T22:38:47.478Z,99378.59
2022-10-17T22:41:14.002Z,99370.47
2022-10-17T22:43:40.395Z,99377.78
2022-10-17T22:46:07.862Z,99376.63
2022-10-17T22:48:34.397Z,99375.00
2022-10-17T22:51:01.361Z,99366.47
2022-10-17T22:53:29.526Z,99368.22
2022-10-17T22:56:01.326Z,99365.28
2022-10-17T22:58:29.254Z,99369.94
2022-10-17T23:00:56.159Z,99374.31
2022-10-17T23:03:23.738Z,99381.91
2022-10-17T23:05:51.007Z,99380.72
2022-10-17T23:08:18.263Z,99365.59
2022-10-17T23:10:45.849Z,99366.97
2022-10-17T23:13:13.127Z,99371.44
2022-10-17T23:15:39.898Z,99361.19
2022-10-17T23:18:06.717Z,99359.38
2022-10-17T23:20:33.098Z,99363.66
2022-10-17T23:22:59.520Z,99362.13
2022-10-17T23:25:26.302Z,99358.00
2022-10-17T23:27:53.211Z,99353.97
2022-10-17T23:30:19.655Z,99356.84
2022-10-17T23:32:46.082Z,99357.59
2022-10-17T23:35:12.510Z,99354.25
2022-10-17T23:37:38.903Z,99359.25
2022-10-17T23:40:06.405Z,99354.34
2022-10-17T23:42:32.767Z,99357.06
2022-10-17T23:44:59.127Z,99365.13
2022-10-17T23:47:25.511Z,99363.91
2022-10-17T23:49:51.978Z,99356.97
2022-10-17T23:52:18.375Z,99360.31
2022-10-17T23:54:44.840Z,99354.13
2022-10-17T23:57:11.273Z,99357.34
2022-10-17T23:59:37.654Z,99345.97
